createdAt,value
2022-09-25T00:03:55.132Z,11.23
2022-09-25T00:07:59.450Z,8.97
2022-09-25T00:12:02.918Z,10.10
2022-09-25T00:16:06.660Z,9.90
2022-09-25T00:20:12.531Z,10.60
2022-09-25T00:24:15.991Z,9.80
2022-09-25T00:28:19.399Z,10.07
2022-09-25T00:32:22.633Z,10.00
2022-09-25T00:36:28.088Z,10.53
2022-09-25T00:40:31.318Z,9.27
2022-09-25T00:45:00.995Z,10.07
2022-09-25T00:49:08.356Z,10.60
2022-09-25T00:53:17.531Z,11.80
2022-09-25T00:57:23.333Z,9.20
2022-09-25T01:01:27.153Z,11.40
2022-09-25T01:05:34.367Z,11.03
2022-09-25T01:09:39.613Z,10.40
2022-09-25T01:13:43.137Z,10.80
2022-09-25T01:17:55.012Z,9.77
2022-09-25T01:22:10.877Z,10.83
2022-09-25T01:26:32.516Z,10.17
2022-09-25T01:30:44.374Z,10.60
2022-09-25T01:34:55.881Z,12.10
2022-09-25T01:39:05.004Z,10.27
2022-09-25T01:43:14.483Z,11.03
2022-09-25T01:47:25.336Z,10.37
2022-09-25T01:51:33.159Z,11.20
2022-09-25T01:55:48.735Z,9.77
2022-09-25T02:00:00.013Z,11.37
2022-09-25T02:04:09.212Z,10.67
2022-09-25T02:08:24.278Z,10.70
2022-09-25T02:12:35.524Z,10.53
2022-09-25T02:16:43.784Z,11.20
2022-09-25T02:20:54.176Z,10.40
2022-09-25T02:25:02.042Z,9.50
2022-09-25T02:29:06.610Z,10.43
2022-09-25T02:33:10.819Z,10.87
2022-09-25T02:37:16.589Z,10.37
2022-09-25T02:41:31.102Z,9.97
2022-09-25T02:45:44.674Z,9.90
2022-09-25T02:49:52.964Z,10.20
2022-09-25T02:54:08.139Z,9.53
2022-09-25T02:58:16.703Z,10.50
2022-09-25T03:02:21.971Z,10.63
2022-09-25T03:06:26.345Z,10.33
2022-09-25T03:10:34.496Z,10.37
2022-09-25T03:14:37.954Z,10.27
2022-09-25T03:18:41.438Z,11.00
2022-09-25T03:22:45.935Z,10.70
2022-09-25T03:26:57.484Z,11.27
2022-09-25T03:31:04.055Z,10.10
2022-09-25T03:35:08.180Z,10.67
2022-09-25T03:39:11.852Z,11.60
2022-09-25T03:43:16.782Z,12.17
2022-09-25T03:47:20.074Z,11.17
2022-09-25T03:51:23.985Z,11.70
2022-09-25T03:55:27.296Z,11.40
2022-09-25T03:59:31.868Z,12.30
2022-09-25T04:03:35.796Z,11.10
2022-09-25T04:07:39.239Z,12.30
2022-09-25T04:11:43.577Z,11.03
2022-09-25T04:15:48.106Z,11.70
2022-09-25T04:19:52.032Z,10.83
2022-09-25T04:24:12.880Z,11.87
2022-09-25T04:28:16.470Z,11.33
2022-09-25T04:32:38.627Z,11.20
2022-09-25T04:36:42.651Z,11.47
2022-09-25T04:40:46.343Z,11.40
2022-09-25T04:44:49.535Z,11.97
2022-09-25T04:48:54.210Z,10.93
2022-09-25T04:52:58.844Z,11.17
2022-09-25T04:57:02.887Z,11.90
2022-09-25T05:01:09.101Z,16.57
2022-09-25T05:05:15.963Z,11.13
2022-09-25T05:09:19.225Z,16.20
2022-09-25T05:13:23.198Z,13.50
2022-09-25T05:17:26.439Z,13.80
2022-09-25T05:21:33.001Z,13.17
2022-09-25T05:25:36.231Z,13.50
2022-09-25T05:29:41.129Z,11.90
2022-09-25T05:33:45.050Z,13.40
2022-09-25T05:37:51.267Z,15.77
2022-09-25T05:41:54.671Z,21.37
2022-09-25T05:45:57.864Z,17.57
2022-09-25T05:50:01.329Z,22.37
2022-09-25T05:54:05.935Z,40.33
2022-09-25T05:58:09.554Z,25.50
2022-09-25T06:02:13.934Z,22.63
2022-09-25T06:06:17.505Z,15.53
2022-09-25T06:10:22.317Z,16.33
2022-09-25T06:14:25.594Z,35.03
2022-09-25T06:18:29.379Z,23.73
2022-09-25T06:22:32.631Z,23.60
2022-09-25T06:26:38.270Z,20.70
2022-09-25T06:30:41.830Z,19.70
2022-09-25T06:34:46.182Z,19.77
2022-09-25T06:38:49.636Z,19.60
2022-09-25T06:43:01.097Z,17.00
2022-09-25T06:47:04.855Z,21.07
2022-09-25T06:51:09.702Z,16.87
2022-09-25T06:55:13.137Z,16.13
2022-09-25T06:59:18.261Z,18.30
2022-09-25T07:03:39.401Z,18.73
2022-09-25T07:07:45.234Z,19.30
2022-09-25T07:11:48.868Z,16.80
2022-09-25T07:15:54.508Z,23.00
2022-09-25T07:19:57.906Z,20.40
2022-09-25T07:24:01.139Z,19.40
2022-09-25T07:28:04.422Z,20.20
2022-09-25T07:32:09.429Z,34.20
2022-09-25T07:36:13.427Z,24.03
2022-09-25T07:40:16.816Z,16.97
2022-09-25T07:44:38.438Z,17.57
2022-09-25T07:48:43.283Z,17.73
2022-09-25T07:52:46.892Z,16.00
2022-09-25T07:56:50.060Z,17.30
2022-09-25T08:00:54.422Z,16.90
2022-09-25T08:04:59.487Z,16.17
2022-09-25T08:09:08.115Z,16.70
2022-09-25T08:13:13.567Z,18.27
2022-09-25T08:17:16.966Z,16.37
2022-09-25T08:21:22.083Z,17.23
2022-09-25T08:25:25.360Z,18.70
2022-09-25T08:29:28.687Z,18.10
2022-09-25T08:33:32.557Z,19.90
2022-09-25T08:37:42.008Z,16.87
2022-09-25T08:41:49.891Z,19.30
2022-09-25T08:46:11.731Z,17.70
2022-09-25T08:50:19.898Z,42.50
2022-09-25T08:54:26.634Z,41.97
2022-09-25T08:58:33.850Z,42.07
2022-09-25T09:02:44.148Z,22.30
2022-09-25T09:07:08.125Z,20.80
2022-09-25T09:11:23.926Z,17.27
2022-09-25T09:15:36.580Z,17.00
2022-09-25T09:19:39.829Z,23.10
2022-09-25T09:23:53.211Z,17.80
2022-09-25T09:28:48.897Z,18.90
2022-09-25T09:33:26.406Z,16.47
2022-09-25T09:37:35.108Z,19.03
2022-09-25T09:41:50.359Z,17.87
2022-09-25T09:50:32.778Z,19.37
2022-09-25T09:54:44.245Z,17.37
2022-09-25T09:58:51.293Z,15.57
2022-09-25T10:03:07.049Z,14.37
2022-09-25T10:07:18.874Z,13.47
2022-09-25T10:11:22.900Z,12.80
2022-09-25T10:15:31.220Z,13.10
2022-09-25T10:19:48.067Z,11.70
2022-09-25T10:23:53.797Z,11.60
2022-09-25T10:27:58.390Z,9.90
2022-09-25T10:32:05.812Z,10.00
2022-09-25T10:36:10.599Z,10.53
2022-09-25T10:40:27.362Z,9.90
2022-09-25T10:44:33.949Z,10.37
2022-09-25T10:48:56.439Z,11.20
2022-09-25T10:53:04.156Z,9.00
2022-09-25T10:57:18.758Z,8.33
2022-09-25T11:01:23.286Z,8.30
2022-09-25T11:05:30.890Z,8.07
2022-09-25T11:09:37.913Z,9.07
2022-09-25T11:13:47.575Z,9.00
2022-09-25T11:17:52.746Z,7.90
2022-09-25T11:22:14.539Z,8.17
2022-09-25T11:26:23.271Z,16.60
2022-09-25T11:30:31.431Z,14.23
2022-09-25T11:34:53.249Z,8.97
2022-09-25T11:39:15.788Z,8.40
2022-09-25T11:43:26.842Z,9.77
2022-09-25T11:47:38.806Z,8.30
2022-09-25T11:52:08.830Z,9.00
2022-09-25T11:56:33.007Z,12.80
2022-09-25T12:00:47.443Z,8.27
2022-09-25T12:05:17.440Z,7.47
2022-09-25T12:09:41.717Z,10.07
2022-09-25T12:13:55.692Z,9.10
2022-09-25T12:18:09.368Z,7.73
2022-09-25T12:22:22.086Z,9.17
2022-09-25T12:26:31.814Z,9.20
2022-09-25T12:30:41.254Z,7.37
2022-09-25T12:35:07.907Z,6.43
2022-09-25T12:39:28.192Z,5.80
2022-09-25T12:43:41.425Z,5.50
2022-09-25T12:47:53.627Z,6.53
2022-09-25T12:52:04.667Z,7.10
2022-09-25T12:56:14.762Z,8.00
2022-09-25T13:00:22.538Z,8.00
2022-09-25T13:04:58.400Z,7.80
2022-09-25T13:09:20.977Z,6.30
2022-09-25T13:13:27.654Z,7.00
2022-09-25T13:17:32.505Z,6.73
2022-09-25T13:21:38.540Z,5.83
2022-09-25T13:25:48.783Z,6.87
2022-09-25T13:29:55.927Z,9.20
2022-09-25T13:34:07.729Z,8.20
2022-09-25T13:38:37.678Z,6.37
2022-09-25T13:42:46.346Z,6.23
2022-09-25T13:47:10.645Z,7.40
2022-09-25T13:51:38.653Z,7.40
2022-09-25T13:55:43.051Z,7.37
2022-09-25T14:00:05.260Z,7.80
2022-09-25T14:04:19.543Z,8.50
2022-09-25T14:08:23.872Z,8.27
2022-09-25T14:12:42.871Z,7.30
2022-09-25T14:16:52.004Z,6.90
2022-09-25T14:21:00.580Z,7.07
2022-09-25T14:25:08.054Z,6.23
2022-09-25T14:29:18.959Z,6.57
2022-09-25T14:33:42.658Z,6.03
2022-09-25T14:38:07.942Z,6.20
2022-09-25T14:42:54.408Z,6.70
2022-09-25T14:47:00.213Z,5.87
2022-09-25T14:51:10.216Z,5.90
2022-09-25T14:55:21.728Z,5.50
2022-09-25T14:59:32.584Z,4.80
2022-09-25T15:03:43.664Z,5.53
2022-09-25T15:07:49.125Z,5.60
2022-09-25T15:11:55.947Z,7.47
2022-09-25T15:16:17.634Z,8.40
2022-09-25T15:20:23.369Z,7.90
2022-09-25T15:24:39.694Z,8.77
2022-09-25T15:28:43.349Z,5.57
2022-09-25T15:32:57.090Z,5.17
2022-09-25T15:37:21.167Z,5.27
2022-09-25T15:41:29.398Z,4.67
2022-09-25T15:45:39.077Z,4.23
2022-09-25T15:49:44.970Z,5.10
2022-09-25T15:53:53.527Z,4.80
2022-09-25T15:58:07.882Z,5.50
2022-09-25T16:02:39.490Z,5.10
2022-09-25T16:06:45.838Z,4.93
2022-09-25T16:10:50.508Z,5.83
2022-09-25T16:14:56.994Z,5.40
2022-09-25T16:19:18.644Z,6.30
2022-09-25T16:23:28.391Z,6.07
2022-09-25T16:27:35.872Z,6.53
2022-09-25T16:31:44.454Z,5.90
2022-09-25T16:36:10.540Z,7.23
2022-09-25T16:40:30.020Z,6.37
2022-09-25T16:44:48.567Z,8.10
2022-09-25T16:49:05.314Z,10.63
2022-09-25T16:53:10.357Z,16.93
2022-09-25T16:57:17.704Z,36.40
2022-09-25T17:01:23.473Z,8.70
2022-09-25T17:05:34.321Z,8.30
2022-09-25T17:09:45.686Z,8.20
2022-09-25T17:13:53.009Z,7.90
2022-09-25T17:18:07.141Z,8.30
2022-09-25T17:22:17.166Z,7.87
2022-09-25T17:26:24.014Z,7.50
2022-09-25T17:30:32.055Z,8.80
2022-09-25T17:34:36.016Z,9.90
2022-09-25T17:38:41.738Z,11.50
2022-09-25T17:42:45.850Z,18.47
2022-09-25T17:46:51.331Z,12.30
2022-09-25T17:50:57.104Z,15.80
2022-09-25T17:55:04.552Z,11.80
2022-09-25T17:59:12.427Z,13.30
2022-09-25T18:03:21.877Z,17.83
2022-09-25T18:07:33.806Z,18.33
2022-09-25T18:11:44.838Z,12.97
2022-09-25T18:15:51.550Z,10.70
2022-09-25T18:20:12.481Z,12.33
2022-09-25T18:24:16.269Z,11.10
2022-09-25T18:28:22.150Z,20.00
2022-09-25T18:32:25.841Z,17.40
2022-09-25T18:36:29.859Z,13.63
2022-09-25T18:40:35.720Z,11.20
2022-09-25T18:44:42.880Z,10.93
2022-09-25T18:48:47.988Z,13.30
2022-09-25T18:52:52.749Z,12.20
2022-09-25T18:56:58.728Z,11.10
2022-09-25T19:01:09.765Z,12.63
2022-09-25T19:05:19.041Z,13.07
2022-09-25T19:09:27.409Z,13.37
2022-09-25T19:13:32.047Z,13.03
2022-09-25T19:17:39.051Z,13.93
2022-09-25T19:21:43.603Z,16.37
2022-09-25T19:25:56.567Z,14.27
2022-09-25T19:30:01.332Z,15.93
2022-09-25T19:34:09.557Z,19.03
2022-09-25T19:38:14.884Z,17.30
2022-09-25T19:42:19.621Z,25.83
2022-09-25T19:46:24.719Z,24.67
2022-09-25T19:50:29.777Z,18.37
2022-09-25T19:54:34.676Z,19.60
2022-09-25T19:58:40.273Z,21.57
2022-09-25T20:02:47.770Z,19.13
2022-09-25T20:06:59.114Z,17.30
2022-09-25T20:11:11.379Z,16.03
2022-09-25T20:15:15.596Z,19.10
2022-09-25T20:19:20.216Z,18.60
2022-09-25T20:23:25.929Z,17.90
2022-09-25T20:27:30.235Z,18.77
2022-09-25T20:31:34.741Z,18.63
2022-09-25T20:35:39.472Z,18.90
2022-09-25T20:39:44.974Z,17.73
2022-09-25T20:43:53.145Z,17.70
2022-09-25T20:47:57.048Z,17.63
2022-09-25T20:52:02.990Z,18.23
2022-09-25T20:56:09.639Z,16.03
2022-09-25T21:00:19.272Z,16.87
2022-09-25T21:04:23.257Z,16.47
2022-09-25T21:08:27.529Z,17.47
2022-09-25T21:12:32.338Z,18.10
2022-09-25T21:16:35.996Z,15.30
2022-09-25T21:20:40.820Z,16.40
2022-09-25T21:24:44.553Z,17.03
2022-09-25T21:28:51.992Z,16.23
2022-09-25T21:32:56.472Z,18.33
2022-09-25T21:37:00.127Z,17.07
2022-09-25T21:41:06.136Z,15.43
2022-09-25T21:45:13.259Z,16.57
2022-09-25T21:49:20.074Z,14.17
2022-09-25T21:53:24.619Z,14.80
2022-09-25T21:57:28.676Z,16.30
2022-09-25T22:01:35.744Z,14.60
2022-09-25T22:05:42.584Z,16.63
2022-09-25T22:09:46.309Z,14.50
2022-09-25T22:13:51.722Z,14.17
2022-09-25T22:17:56.655Z,12.67
2022-09-25T22:22:01.019Z,13.93
2022-09-25T22:26:05.172Z,17.20
2022-09-25T22:30:10.321Z,15.10
2022-09-25T22:34:20.908Z,15.10
2022-09-25T22:38:24.441Z,13.43
2022-09-25T22:42:28.336Z,13.93
2022-09-25T22:46:32.707Z,13.63
2022-09-25T22:50:38.933Z,15.60
2022-09-25T22:54:42.471Z,14.37
2022-09-25T22:58:48.978Z,15.93
2022-09-25T23:02:52.318Z,14.10
2022-09-25T23:07:01.963Z,15.83
2022-09-25T23:11:08.146Z,14.50
2022-09-25T23:15:12.882Z,14.33
2022-09-25T23:19:16.697Z,13.80
2022-09-25T23:23:23.155Z,15.03
2022-09-25T23:27:26.519Z,16.47
2022-09-25T23:31:31.263Z,16.60
2022-09-25T23:35:35.177Z,15.37
2022-09-25T23:39:40.899Z,15.33
2022-09-25T23:43:44.739Z,18.20
2022-09-25T23:47:48.115Z,15.30
2022-09-25T23:51:52.249Z,15.50
2022-09-25T23:55:57.301Z,19.30
